sensor_id;sensor_type;location;lat;lon;timestamp;P1;durP1;ratioP1;P2;durP2;ratioP2
27424;SDS011;15244;49.088;11.886;2024-02-26T00:04:18;22.45;;;14.50;;
27424;SDS011;15244;49.088;11.886;2024-02-26T00:09:20;24.23;;;14.75;;
27424;SDS011;15244;49.088;11.886;2024-02-26T00:14:21;21.77;;;14.73;;
27424;SDS011;15244;49.088;11.886;2024-02-26T00:19:23;23.08;;;14.75;;
27424;SDS011;15244;49.088;11.886;2024-02-26T00:24:25;21.23;;;14.13;;
27424;SDS011;15244;49.088;11.886;2024-02-26T00:29:27;24.92;;;16.08;;
27424;SDS011;15244;49.088;11.886;2024-02-26T00:34:28;23.52;;;15.02;;
27424;SDS011;15244;49.088;11.886;2024-02-26T00:39:30;26.25;;;16.55;;
27424;SDS011;15244;49.088;11.886;2024-02-26T00:44:32;28.15;;;16.10;;
27424;SDS011;15244;49.088;11.886;2024-02-26T00:49:34;26.08;;;16.52;;
27424;SDS011;15244;49.088;11.886;2024-02-26T00:54:36;29.40;;;16.52;;
27424;SDS011;15244;49.088;11.886;2024-02-26T00:59:37;24.65;;;15.55;;
27424;SDS011;15244;49.088;11.886;2024-02-26T01:04:40;25.15;;;15.32;;
27424;SDS011;15244;49.088;11.886;2024-02-26T01:09:42;27.70;;;15.80;;
27424;SDS011;15244;49.088;11.886;2024-02-26T01:14:44;24.77;;;15.00;;
27424;SDS011;15244;49.088;11.886;2024-02-26T01:19:45;25.90;;;15.10;;
27424;SDS011;15244;49.088;11.886;2024-02-26T01:24:47;25.73;;;15.27;;
27424;SDS011;15244;49.088;11.886;2024-02-26T01:29:49;25.95;;;15.27;;
27424;SDS011;15244;49.088;11.886;2024-02-26T01:34:51;23.70;;;14.32;;
27424;SDS011;15244;49.088;11.886;2024-02-26T01:39:53;24.88;;;14.90;;
27424;SDS011;15244;49.088;11.886;2024-02-26T01:44:54;21.88;;;15.00;;
27424;SDS011;15244;49.088;11.886;2024-02-26T01:49:56;22.92;;;14.15;;
27424;SDS011;15244;49.088;11.886;2024-02-26T01:54:59;23.73;;;13.95;;
27424;SDS011;15244;49.088;11.886;2024-02-26T02:00:02;25.58;;;13.63;;
27424;SDS011;15244;49.088;11.886;2024-02-26T02:05:08;25.05;;;13.88;;
27424;SDS011;15244;49.088;11.886;2024-02-26T02:10:11;22.02;;;13.70;;
27424;SDS011;15244;49.088;11.886;2024-02-26T02:15:14;22.50;;;12.93;;
27424;SDS011;15244;49.088;11.886;2024-02-26T02:20:16;18.52;;;12.55;;
27424;SDS011;15244;49.088;11.886;2024-02-26T02:25:19;21.23;;;13.50;;
27424;SDS011;15244;49.088;11.886;2024-02-26T02:30:21;22.98;;;12.50;;
27424;SDS011;15244;49.088;11.886;2024-02-26T02:35:26;19.42;;;11.95;;
27424;SDS011;15244;49.088;11.886;2024-02-26T02:40:28;20.75;;;11.75;;
27424;SDS011;15244;49.088;11.886;2024-02-26T02:45:29;20.17;;;12.27;;
27424;SDS011;15244;49.088;11.886;2024-02-26T02:50:32;18.35;;;10.68;;
27424;SDS011;15244;49.088;11.886;2024-02-26T02:55:33;10.15;;;8.43;;
27424;SDS011;15244;49.088;11.886;2024-02-26T03:00:35;12.52;;;8.48;;
27424;SDS011;15244;49.088;11.886;2024-02-26T03:05:37;10.55;;;7.97;;
27424;SDS011;15244;49.088;11.886;2024-02-26T03:10:38;11.38;;;7.43;;
27424;SDS011;15244;49.088;11.886;2024-02-26T03:15:40;9.07;;;6.68;;
27424;SDS011;15244;49.088;11.886;2024-02-26T03:20:42;7.43;;;6.13;;
27424;SDS011;15244;49.088;11.886;2024-02-26T03:25:44;8.45;;;6.53;;
27424;SDS011;15244;49.088;11.886;2024-02-26T03:30:48;8.35;;;6.22;;
27424;SDS011;15244;49.088;11.886;2024-02-26T03:35:49;7.55;;;5.95;;
27424;SDS011;15244;49.088;11.886;2024-02-26T03:40:51;7.57;;;6.07;;
27424;SDS011;15244;49.088;11.886;2024-02-26T03:45:53;6.00;;;5.40;;
27424;SDS011;15244;49.088;11.886;2024-02-26T03:50:55;6.63;;;5.97;;
27424;SDS011;15244;49.088;11.886;2024-02-26T03:55:57;5.47;;;4.97;;
27424;SDS011;15244;49.088;11.886;2024-02-26T04:00:59;9.27;;;6.82;;
27424;SDS011;15244;49.088;11.886;2024-02-26T04:06:02;6.45;;;5.82;;
27424;SDS011;15244;49.088;11.886;2024-02-26T04:11:04;5.68;;;4.93;;
27424;SDS011;15244;49.088;11.886;2024-02-26T04:16:09;6.32;;;5.18;;
27424;SDS011;15244;49.088;11.886;2024-02-26T04:21:11;6.75;;;4.68;;
27424;SDS011;15244;49.088;11.886;2024-02-26T04:26:12;5.65;;;4.93;;
27424;SDS011;15244;49.088;11.886;2024-02-26T04:31:14;4.68;;;4.25;;
27424;SDS011;15244;49.088;11.886;2024-02-26T04:36:16;6.45;;;4.65;;
27424;SDS011;15244;49.088;11.886;2024-02-26T04:41:18;6.75;;;4.45;;
27424;SDS011;15244;49.088;11.886;2024-02-26T04:46:20;7.15;;;4.93;;
27424;SDS011;15244;49.088;11.886;2024-02-26T04:51:23;5.35;;;4.40;;
27424;SDS011;15244;49.088;11.886;2024-02-26T04:56:25;5.93;;;5.00;;
27424;SDS011;15244;49.088;11.886;2024-02-26T05:01:26;6.40;;;4.85;;
27424;SDS011;15244;49.088;11.886;2024-02-26T05:06:28;5.93;;;5.00;;
27424;SDS011;15244;49.088;11.886;2024-02-26T05:11:30;4.65;;;4.25;;
27424;SDS011;15244;49.088;11.886;2024-02-26T05:16:32;5.20;;;4.70;;
27424;SDS011;15244;49.088;11.886;2024-02-26T05:21:34;5.18;;;4.25;;
27424;SDS011;15244;49.088;11.886;2024-02-26T05:26:36;5.72;;;4.80;;
27424;SDS011;15244;49.088;11.886;2024-02-26T05:31:37;6.03;;;4.65;;
27424;SDS011;15244;49.088;11.886;2024-02-26T05:36:39;5.25;;;4.40;;
27424;SDS011;15244;49.088;11.886;2024-02-26T05:41:41;4.82;;;4.43;;
27424;SDS011;15244;49.088;11.886;2024-02-26T05:46:44;5.10;;;4.70;;
27424;SDS011;15244;49.088;11.886;2024-02-26T05:51:46;6.30;;;5.00;;
27424;SDS011;15244;49.088;11.886;2024-02-26T05:56:47;6.55;;;5.88;;
27424;SDS011;15244;49.088;11.886;2024-02-26T06:01:49;10.75;;;7.90;;
27424;SDS011;15244;49.088;11.886;2024-02-26T06:06:50;9.32;;;6.18;;
27424;SDS011;15244;49.088;11.886;2024-02-26T06:11:52;5.80;;;5.28;;
27424;SDS011;15244;49.088;11.886;2024-02-26T06:16:54;7.43;;;5.15;;
27424;SDS011;15244;49.088;11.886;2024-02-26T06:21:56;5.10;;;4.63;;
27424;SDS011;15244;49.088;11.886;2024-02-26T06:26:57;9.55;;;5.65;;
27424;SDS011;15244;49.088;11.886;2024-02-26T06:31:59;5.68;;;5.07;;
27424;SDS011;15244;49.088;11.886;2024-02-26T06:37:00;5.65;;;5.15;;
27424;SDS011;15244;49.088;11.886;2024-02-26T06:42:02;6.30;;;5.70;;
27424;SDS011;15244;49.088;11.886;2024-02-26T06:47:04;5.75;;;5.18;;
27424;SDS011;15244;49.088;11.886;2024-02-26T06:52:06;7.03;;;5.10;;
27424;SDS011;15244;49.088;11.886;2024-02-26T06:57:08;7.72;;;6.05;;
27424;SDS011;15244;49.088;11.886;2024-02-26T07:02:09;7.25;;;5.75;;
27424;SDS011;15244;49.088;11.886;2024-02-26T07:07:11;6.95;;;6.00;;
27424;SDS011;15244;49.088;11.886;2024-02-26T07:12:13;7.30;;;6.53;;
27424;SDS011;15244;49.088;11.886;2024-02-26T07:17:15;7.00;;;5.82;;
27424;SDS011;15244;49.088;11.886;2024-02-26T07:22:17;7.25;;;6.57;;
27424;SDS011;15244;49.088;11.886;2024-02-26T07:27:19;7.65;;;6.18;;
27424;SDS011;15244;49.088;11.886;2024-02-26T07:32:22;9.82;;;6.82;;
27424;SDS011;15244;49.088;11.886;2024-02-26T07:37:24;8.68;;;5.82;;
27424;SDS011;15244;49.088;11.886;2024-02-26T07:42:26;7.10;;;6.40;;
27424;SDS011;15244;49.088;11.886;2024-02-26T07:47:28;9.88;;;6.25;;
27424;SDS011;15244;49.088;11.886;2024-02-26T07:52:31;6.18;;;5.65;;
27424;SDS011;15244;49.088;11.886;2024-02-26T07:57:33;7.47;;;5.82;;
27424;SDS011;15244;49.088;11.886;2024-02-26T08:02:38;7.57;;;6.25;;
27424;SDS011;15244;49.088;11.886;2024-02-26T08:07:39;8.55;;;6.38;;
27424;SDS011;15244;49.088;11.886;2024-02-26T08:12:41;7.43;;;6.47;;
27424;SDS011;15244;49.088;11.886;2024-02-26T08:17:44;8.65;;;6.03;;
27424;SDS011;15244;49.088;11.886;2024-02-26T08:22:47;9.95;;;6.70;;
27424;SDS011;15244;49.088;11.886;2024-02-26T08:27:50;10.02;;;6.70;;
27424;SDS011;15244;49.088;11.886;2024-02-26T08:32:52;10.10;;;6.53;;
27424;SDS011;15244;49.088;11.886;2024-02-26T08:37:55;9.23;;;6.47;;
27424;SDS011;15244;49.088;11.886;2024-02-26T08:42:57;9.07;;;6.18;;
27424;SDS011;15244;49.088;11.886;2024-02-26T08:47:59;8.00;;;6.18;;
27424;SDS011;15244;49.088;11.886;2024-02-26T08:53:01;9.00;;;6.65;;
27424;SDS011;15244;49.088;11.886;2024-02-26T08:58:08;7.65;;;5.97;;
27424;SDS011;15244;49.088;11.886;2024-02-26T09:03:10;7.30;;;6.40;;
27424;SDS011;15244;49.088;11.886;2024-02-26T09:08:12;8.32;;;6.38;;
27424;SDS011;15244;49.088;11.886;2024-02-26T09:13:14;9.68;;;6.70;;
27424;SDS011;15244;49.088;11.886;2024-02-26T09:18:15;8.57;;;6.85;;
27424;SDS011;15244;49.088;11.886;2024-02-26T09:23:17;9.15;;;6.10;;
27424;SDS011;15244;49.088;11.886;2024-02-26T09:28:19;7.57;;;6.55;;
27424;SDS011;15244;49.088;11.886;2024-02-26T09:33:22;6.90;;;6.03;;
27424;SDS011;15244;49.088;11.886;2024-02-26T09:38:24;7.03;;;6.07;;
27424;SDS011;15244;49.088;11.886;2024-02-26T09:43:26;7.25;;;5.82;;
27424;SDS011;15244;49.088;11.886;2024-02-26T09:48:35;9.70;;;6.45;;
27424;SDS011;15244;49.088;11.886;2024-02-26T09:53:39;7.95;;;5.82;;
27424;SDS011;15244;49.088;11.886;2024-02-26T09:58:45;5.93;;;4.72;;
27424;SDS011;15244;49.088;11.886;2024-02-26T10:03:52;7.10;;;4.80;;
27424;SDS011;15244;49.088;11.886;2024-02-26T10:08:59;10.75;;;6.00;;
27424;SDS011;15244;49.088;11.886;2024-02-26T10:14:01;6.22;;;5.22;;
27424;SDS011;15244;49.088;11.886;2024-02-26T10:19:04;7.60;;;6.72;;
27424;SDS011;15244;49.088;11.886;2024-02-26T10:24:13;7.47;;;5.75;;
27424;SDS011;15244;49.088;11.886;2024-02-26T10:29:16;7.15;;;6.45;;
27424;SDS011;15244;49.088;11.886;2024-02-26T10:34:18;7.50;;;6.28;;
27424;SDS011;15244;49.088;11.886;2024-02-26T10:39:20;6.88;;;6.18;;
27424;SDS011;15244;49.088;11.886;2024-02-26T10:44:23;7.80;;;6.85;;
27424;SDS011;15244;49.088;11.886;2024-02-26T10:49:27;7.00;;;6.30;;
27424;SDS011;15244;49.088;11.886;2024-02-26T10:54:29;8.27;;;6.35;;
27424;SDS011;15244;49.088;11.886;2024-02-26T10:59:34;7.32;;;6.60;;
27424;SDS011;15244;49.088;11.886;2024-02-26T11:04:39;7.82;;;6.60;;
27424;SDS011;15244;49.088;11.886;2024-02-26T11:09:41;10.73;;;7.85;;
27424;SDS011;15244;49.088;11.886;2024-02-26T11:14:47;6.75;;;6.05;;
27424;SDS011;15244;49.088;11.886;2024-02-26T11:19:53;7.93;;;6.63;;
27424;SDS011;15244;49.088;11.886;2024-02-26T11:24:57;7.25;;;6.50;;
27424;SDS011;15244;49.088;11.886;2024-02-26T11:30:02;7.22;;;6.47;;
27424;SDS011;15244;49.088;11.886;2024-02-26T11:35:07;7.18;;;6.35;;
27424;SDS011;15244;49.088;11.886;2024-02-26T11:40:12;9.70;;;6.43;;
27424;SDS011;15244;49.088;11.886;2024-02-26T11:50:41;8.10;;;6.85;;
27424;SDS011;15244;49.088;11.886;2024-02-26T11:55:44;6.75;;;5.93;;
27424;SDS011;15244;49.088;11.886;2024-02-26T12:00:46;7.57;;;6.43;;
27424;SDS011;15244;49.088;11.886;2024-02-26T12:05:49;7.38;;;6.38;;
27424;SDS011;15244;49.088;11.886;2024-02-26T12:10:53;7.50;;;6.80;;
27424;SDS011;15244;49.088;11.886;2024-02-26T12:15:57;7.15;;;6.40;;
27424;SDS011;15244;49.088;11.886;2024-02-26T12:21:02;6.88;;;6.18;;
27424;SDS011;15244;49.088;11.886;2024-02-26T12:26:06;6.40;;;5.80;;
27424;SDS011;15244;49.088;11.886;2024-02-26T12:31:10;6.40;;;5.78;;
27424;SDS011;15244;49.088;11.886;2024-02-26T12:36:16;7.00;;;6.30;;
27424;SDS011;15244;49.088;11.886;2024-02-26T12:41:18;5.82;;;5.25;;
27424;SDS011;15244;49.088;11.886;2024-02-26T12:46:21;6.75;;;5.70;;
27424;SDS011;15244;49.088;11.886;2024-02-26T12:51:23;6.75;;;5.00;;
27424;SDS011;15244;49.088;11.886;2024-02-26T12:56:25;7.35;;;6.03;;
27424;SDS011;15244;49.088;11.886;2024-02-26T13:01:29;6.15;;;4.95;;
27424;SDS011;15244;49.088;11.886;2024-02-26T13:06:32;5.90;;;5.03;;
27424;SDS011;15244;49.088;11.886;2024-02-26T13:11:35;5.50;;;5.00;;
27424;SDS011;15244;49.088;11.886;2024-02-26T13:16:37;5.40;;;4.90;;
27424;SDS011;15244;49.088;11.886;2024-02-26T13:21:39;5.13;;;4.60;;
27424;SDS011;15244;49.088;11.886;2024-02-26T13:26:41;4.93;;;4.25;;
27424;SDS011;15244;49.088;11.886;2024-02-26T13:31:42;4.22;;;3.83;;
27424;SDS011;15244;49.088;11.886;2024-02-26T13:36:45;3.30;;;3.00;;
27424;SDS011;15244;49.088;11.886;2024-02-26T13:41:47;3.17;;;2.97;;
27424;SDS011;15244;49.088;11.886;2024-02-26T13:46:49;3.80;;;3.50;;
27424;SDS011;15244;49.088;11.886;2024-02-26T13:51:50;3.75;;;3.45;;
27424;SDS011;15244;49.088;11.886;2024-02-26T13:56:52;3.67;;;3.30;;
27424;SDS011;15244;49.088;11.886;2024-02-26T14:01:54;3.90;;;3.42;;
27424;SDS011;15244;49.088;11.886;2024-02-26T14:06:56;3.78;;;3.47;;
27424;SDS011;15244;49.088;11.886;2024-02-26T14:11:59;4.60;;;3.55;;
27424;SDS011;15244;49.088;11.886;2024-02-26T14:17:02;2.63;;;2.42;;
27424;SDS011;15244;49.088;11.886;2024-02-26T14:22:05;3.65;;;3.35;;
27424;SDS011;15244;49.088;11.886;2024-02-26T14:27:10;4.15;;;3.60;;
27424;SDS011;15244;49.088;11.886;2024-02-26T14:32:17;4.15;;;3.85;;
27424;SDS011;15244;49.088;11.886;2024-02-26T14:37:19;4.05;;;3.72;;
27424;SDS011;15244;49.088;11.886;2024-02-26T14:42:21;3.65;;;3.35;;
27424;SDS011;15244;49.088;11.886;2024-02-26T14:47:22;3.67;;;3.38;;
27424;SDS011;15244;49.088;11.886;2024-02-26T14:52:24;3.33;;;3.03;;
27424;SDS011;15244;49.088;11.886;2024-02-26T14:57:26;3.58;;;3.28;;
27424;SDS011;15244;49.088;11.886;2024-02-26T15:02:28;3.65;;;3.33;;
27424;SDS011;15244;49.088;11.886;2024-02-26T15:07:30;3.85;;;3.55;;
27424;SDS011;15244;49.088;11.886;2024-02-26T15:12:32;6.28;;;3.45;;
27424;SDS011;15244;49.088;11.886;2024-02-26T15:17:34;3.58;;;3.28;;
27424;SDS011;15244;49.088;11.886;2024-02-26T15:22:37;3.92;;;3.63;;
27424;SDS011;15244;49.088;11.886;2024-02-26T15:27:39;3.80;;;3.50;;
27424;SDS011;15244;49.088;11.886;2024-02-26T15:32:40;3.67;;;3.40;;
27424;SDS011;15244;49.088;11.886;2024-02-26T15:37:44;5.18;;;4.35;;
27424;SDS011;15244;49.088;11.886;2024-02-26T15:42:46;5.00;;;4.60;;
27424;SDS011;15244;49.088;11.886;2024-02-26T15:47:47;6.13;;;4.55;;
27424;SDS011;15244;49.088;11.886;2024-02-26T15:52:49;4.80;;;4.40;;
27424;SDS011;15244;49.088;11.886;2024-02-26T15:57:51;6.25;;;5.20;;
27424;SDS011;15244;49.088;11.886;2024-02-26T16:02:52;5.53;;;5.03;;
27424;SDS011;15244;49.088;11.886;2024-02-26T16:07:55;5.35;;;4.80;;
27424;SDS011;15244;49.088;11.886;2024-02-26T16:13:01;5.65;;;5.20;;
27424;SDS011;15244;49.088;11.886;2024-02-26T16:18:03;6.00;;;5.40;;
27424;SDS011;15244;49.088;11.886;2024-02-26T16:23:05;6.25;;;5.10;;
27424;SDS011;15244;49.088;11.886;2024-02-26T16:28:09;6.97;;;6.13;;
27424;SDS011;15244;49.088;11.886;2024-02-26T16:33:10;8.20;;;5.90;;
27424;SDS011;15244;49.088;11.886;2024-02-26T16:38:13;6.82;;;6.05;;
27424;SDS011;15244;49.088;11.886;2024-02-26T16:43:14;6.78;;;6.07;;
27424;SDS011;15244;49.088;11.886;2024-02-26T16:48:16;7.18;;;6.10;;
27424;SDS011;15244;49.088;11.886;2024-02-26T16:53:18;6.95;;;6.30;;
27424;SDS011;15244;49.088;11.886;2024-02-26T16:58:19;7.78;;;6.40;;
27424;SDS011;15244;49.088;11.886;2024-02-26T17:03:25;6.47;;;5.82;;
27424;SDS011;15244;49.088;11.886;2024-02-26T17:08:27;7.05;;;6.40;;
27424;SDS011;15244;49.088;11.886;2024-02-26T17:13:30;7.78;;;6.85;;
27424;SDS011;15244;49.088;11.886;2024-02-26T17:18:31;9.55;;;6.70;;
27424;SDS011;15244;49.088;11.886;2024-02-26T17:23:33;7.38;;;6.68;;
27424;SDS011;15244;49.088;11.886;2024-02-26T17:28:36;9.63;;;6.88;;
27424;SDS011;15244;49.088;11.886;2024-02-26T17:33:42;7.70;;;6.70;;
27424;SDS011;15244;49.088;11.886;2024-02-26T17:38:45;8.15;;;7.35;;
27424;SDS011;15244;49.088;11.886;2024-02-26T17:43:50;11.27;;;8.02;;
27424;SDS011;15244;49.088;11.886;2024-02-26T17:48:52;9.73;;;8.48;;
27424;SDS011;15244;49.088;11.886;2024-02-26T17:53:54;10.00;;;8.00;;
27424;SDS011;15244;49.088;11.886;2024-02-26T17:58:56;11.02;;;7.97;;
27424;SDS011;15244;49.088;11.886;2024-02-26T18:03:57;10.30;;;8.05;;
27424;SDS011;15244;49.088;11.886;2024-02-26T18:08:59;8.93;;;8.02;;
27424;SDS011;15244;49.088;11.886;2024-02-26T18:14:01;12.80;;;9.10;;
27424;SDS011;15244;49.088;11.886;2024-02-26T18:19:03;11.80;;;9.25;;
27424;SDS011;15244;49.088;11.886;2024-02-26T18:24:05;13.25;;;9.52;;
27424;SDS011;15244;49.088;11.886;2024-02-26T18:29:08;11.73;;;9.50;;
27424;SDS011;15244;49.088;11.886;2024-02-26T18:34:10;10.75;;;9.30;;
27424;SDS011;15244;49.088;11.886;2024-02-26T18:39:12;11.65;;;9.45;;
27424;SDS011;15244;49.088;11.886;2024-02-26T18:44:14;12.02;;;10.45;;
27424;SDS011;15244;49.088;11.886;2024-02-26T18:49:16;13.52;;;10.32;;
27424;SDS011;15244;49.088;11.886;2024-02-26T18:54:18;13.45;;;10.38;;
27424;SDS011;15244;49.088;11.886;2024-02-26T18:59:19;13.32;;;10.77;;
27424;SDS011;15244;49.088;11.886;2024-02-26T19:04:21;15.90;;;11.02;;
27424;SDS011;15244;49.088;11.886;2024-02-26T19:09:23;11.32;;;9.20;;
27424;SDS011;15244;49.088;11.886;2024-02-26T19:14:25;11.57;;;9.98;;
27424;SDS011;15244;49.088;11.886;2024-02-26T19:19:29;11.27;;;9.73;;
27424;SDS011;15244;49.088;11.886;2024-02-26T19:24:32;12.27;;;10.65;;
27424;SDS011;15244;49.088;11.886;2024-02-26T19:29:33;15.73;;;11.52;;
27424;SDS011;15244;49.088;11.886;2024-02-26T19:34:37;14.60;;;10.32;;
27424;SDS011;15244;49.088;11.886;2024-02-26T19:39:39;14.90;;;10.70;;
27424;SDS011;15244;49.088;11.886;2024-02-26T19:44:41;12.32;;;10.07;;
27424;SDS011;15244;49.088;11.886;2024-02-26T19:49:47;16.35;;;11.27;;
27424;SDS011;15244;49.088;11.886;2024-02-26T19:54:49;14.57;;;11.23;;
27424;SDS011;15244;49.088;11.886;2024-02-26T19:59:51;15.05;;;11.07;;
27424;SDS011;15244;49.088;11.886;2024-02-26T20:04:53;17.05;;;11.73;;
27424;SDS011;15244;49.088;11.886;2024-02-26T20:09:55;14.48;;;10.35;;
27424;SDS011;15244;49.088;11.886;2024-02-26T20:14:56;14.48;;;10.98;;
27424;SDS011;15244;49.088;11.886;2024-02-26T20:19:58;14.15;;;10.40;;
27424;SDS011;15244;49.088;11.886;2024-02-26T20:25:00;14.70;;;10.40;;
27424;SDS011;15244;49.088;11.886;2024-02-26T20:30:02;11.95;;;9.88;;
27424;SDS011;15244;49.088;11.886;2024-02-26T20:35:04;15.55;;;10.30;;
27424;SDS011;15244;49.088;11.886;2024-02-26T20:40:08;16.48;;;11.48;;
27424;SDS011;15244;49.088;11.886;2024-02-26T20:45:10;20.13;;;11.93;;
27424;SDS011;15244;49.088;11.886;2024-02-26T20:50:12;14.73;;;11.32;;
27424;SDS011;15244;49.088;11.886;2024-02-26T20:55:14;16.10;;;11.45;;
27424;SDS011;15244;49.088;11.886;2024-02-26T21:00:16;19.33;;;11.90;;
27424;SDS011;15244;49.088;11.886;2024-02-26T21:05:18;18.38;;;12.45;;
27424;SDS011;15244;49.088;11.886;2024-02-26T21:10:20;18.80;;;12.52;;
27424;SDS011;15244;49.088;11.886;2024-02-26T21:15:29;18.88;;;12.43;;
27424;SDS011;15244;49.088;11.886;2024-02-26T21:20:32;17.83;;;13.00;;
27424;SDS011;15244;49.088;11.886;2024-02-26T21:25:34;17.67;;;12.27;;
27424;SDS011;15244;49.088;11.886;2024-02-26T21:30:37;20.25;;;13.82;;
27424;SDS011;15244;49.088;11.886;2024-02-26T21:35:39;20.90;;;14.13;;
27424;SDS011;15244;49.088;11.886;2024-02-26T21:40:42;21.80;;;14.15;;
27424;SDS011;15244;49.088;11.886;2024-02-26T21:45:44;22.42;;;13.40;;
27424;SDS011;15244;49.088;11.886;2024-02-26T21:50:48;19.83;;;13.60;;
27424;SDS011;15244;49.088;11.886;2024-02-26T21:55:52;20.73;;;14.57;;
27424;SDS011;15244;49.088;11.886;2024-02-26T22:00:55;22.65;;;14.00;;
27424;SDS011;15244;49.088;11.886;2024-02-26T22:05:57;24.20;;;14.43;;
27424;SDS011;15244;49.088;11.886;2024-02-26T22:11:00;23.83;;;15.93;;
27424;SDS011;15244;49.088;11.886;2024-02-26T22:16:04;26.48;;;15.82;;
27424;SDS011;15244;49.088;11.886;2024-02-26T22:21:06;25.50;;;15.52;;
27424;SDS011;15244;49.088;11.886;2024-02-26T22:26:10;26.27;;;16.85;;
27424;SDS011;15244;49.088;11.886;2024-02-26T22:31:12;26.65;;;16.00;;
27424;SDS011;15244;49.088;11.886;2024-02-26T22:36:14;26.52;;;16.58;;
27424;SDS011;15244;49.088;11.886;2024-02-26T22:41:16;24.58;;;16.63;;
27424;SDS011;15244;49.088;11.886;2024-02-26T22:46:20;28.50;;;16.98;;
27424;SDS011;15244;49.088;11.886;2024-02-26T22:51:22;31.40;;;17.15;;
27424;SDS011;15244;49.088;11.886;2024-02-26T22:56:24;27.08;;;16.35;;
27424;SDS011;15244;49.088;11.886;2024-02-26T23:01:25;25.35;;;16.15;;
27424;SDS011;15244;49.088;11.886;2024-02-26T23:06:27;27.20;;;17.25;;
27424;SDS011;15244;49.088;11.886;2024-02-26T23:11:29;34.95;;;18.90;;
27424;SDS011;15244;49.088;11.886;2024-02-26T23:16:31;28.88;;;17.27;;
27424;SDS011;15244;49.088;11.886;2024-02-26T23:21:32;28.83;;;17.90;;
27424;SDS011;15244;49.088;11.886;2024-02-26T23:26:36;32.25;;;18.95;;
27424;SDS011;15244;49.088;11.886;2024-02-26T23:31:38;29.92;;;17.95;;
27424;SDS011;15244;49.088;11.886;2024-02-26T23:36:39;30.20;;;18.35;;
27424;SDS011;15244;49.088;11.886;2024-02-26T23:41:41;33.35;;;19.52;;
27424;SDS011;15244;49.088;11.886;2024-02-26T23:46:45;31.48;;;18.00;;
27424;SDS011;15244;49.088;11.886;2024-02-26T23:51:48;33.65;;;19.58;;
27424;SDS011;15244;49.088;11.886;2024-02-26T23:56:50;33.47;;;19.98;;
